Appleton City, Missouri
Current Conditions -  °F | °C
As of 10:35 AM on Saturday 20 Dec 2014 (Local Time) from KGLY Reporting Station
Haze Haze  
Wind Chill: 33°   Ceiling: 1500
Heat Index: 37°   Visibility: 5mi
Dew Point: 37°   Wind: 6mph
Humidity: 100%   Direction: 200°SSW
Pressure: 30.23"   Gusts: NA
Location:  38.19°N, 94.03°W
Report Text: KGLY 201635Z AUTO 20005KT 5SM BR SCT010 OVC015 03/03 A3023 RMK AO2
Loading
Personal Weather Stations






























Interactive Weather Map New forecast layout! Learn more

10-Day Weather Forecast

Advertisements
Track Severe Weather on mobile